sensor_id;sensor_type;location;lat;lon;timestamp;P1;durP1;ratioP1;P2;durP2;ratioP2
1603;SDS011;795;49.296;11.348;2022-08-21T00:01:51;12.17;;;10.93;;
1603;SDS011;795;49.296;11.348;2022-08-21T00:04:19;12.40;;;10.43;;
1603;SDS011;795;49.296;11.348;2022-08-21T00:06:48;11.80;;;10.63;;
1603;SDS011;795;49.296;11.348;2022-08-21T00:09:17;11.77;;;10.60;;
1603;SDS011;795;49.296;11.348;2022-08-21T00:11:46;11.50;;;10.53;;
1603;SDS011;795;49.296;11.348;2022-08-21T00:14:14;13.93;;;12.33;;
1603;SDS011;795;49.296;11.348;2022-08-21T00:16:42;12.80;;;11.67;;
1603;SDS011;795;49.296;11.348;2022-08-21T00:19:09;14.57;;;11.50;;
1603;SDS011;795;49.296;11.348;2022-08-21T00:21:37;11.87;;;10.67;;
1603;SDS011;795;49.296;11.348;2022-08-21T00:24:09;18.03;;;12.63;;
1603;SDS011;795;49.296;11.348;2022-08-21T00:26:37;11.87;;;10.47;;
1603;SDS011;795;49.296;11.348;2022-08-21T00:29:04;12.03;;;10.43;;
1603;SDS011;795;49.296;11.348;2022-08-21T00:31:31;12.43;;;11.23;;
1603;SDS011;795;49.296;11.348;2022-08-21T00:33:59;11.57;;;10.47;;
1603;SDS011;795;49.296;11.348;2022-08-21T00:36:27;11.37;;;10.37;;
1603;SDS011;795;49.296;11.348;2022-08-21T00:38:55;12.10;;;11.03;;
1603;SDS011;795;49.296;11.348;2022-08-21T00:41:23;12.77;;;11.30;;
1603;SDS011;795;49.296;11.348;2022-08-21T00:44:04;13.17;;;11.10;;
1603;SDS011;795;49.296;11.348;2022-08-21T00:46:36;18.50;;;11.20;;
1603;SDS011;795;49.296;11.348;2022-08-21T00:49:05;12.40;;;9.67;;
1603;SDS011;795;49.296;11.348;2022-08-21T00:51:37;11.10;;;10.20;;
1603;SDS011;795;49.296;11.348;2022-08-21T00:54:26;10.70;;;9.87;;
1603;SDS011;795;49.296;11.348;2022-08-21T00:56:59;17.83;;;11.23;;
1603;SDS011;795;49.296;11.348;2022-08-21T00:59:37;65.93;;;11.67;;
1603;SDS011;795;49.296;11.348;2022-08-21T01:02:09;41.70;;;10.07;;
1603;SDS011;795;49.296;11.348;2022-08-21T01:04:38;11.53;;;10.43;;
1603;SDS011;795;49.296;11.348;2022-08-21T01:07:08;10.60;;;9.80;;
1603;SDS011;795;49.296;11.348;2022-08-21T01:09:35;12.50;;;11.30;;
1603;SDS011;795;49.296;11.348;2022-08-21T01:12:03;11.63;;;10.63;;
1603;SDS011;795;49.296;11.348;2022-08-21T01:14:31;12.93;;;11.67;;
1603;SDS011;795;49.296;11.348;2022-08-21T01:16:59;16.23;;;12.30;;
1603;SDS011;795;49.296;11.348;2022-08-21T01:19:29;13.07;;;11.97;;
1603;SDS011;795;49.296;11.348;2022-08-21T01:21:57;13.30;;;12.00;;
1603;SDS011;795;49.296;11.348;2022-08-21T01:24:26;12.60;;;11.23;;
1603;SDS011;795;49.296;11.348;2022-08-21T01:26:54;14.13;;;11.97;;
1603;SDS011;795;49.296;11.348;2022-08-21T01:29:36;12.37;;;11.20;;
1603;SDS011;795;49.296;11.348;2022-08-21T01:32:13;13.47;;;11.13;;
1603;SDS011;795;49.296;11.348;2022-08-21T01:34:45;10.10;;;9.30;;
1603;SDS011;795;49.296;11.348;2022-08-21T01:37:17;9.33;;;8.63;;
1603;SDS011;795;49.296;11.348;2022-08-21T01:39:47;14.60;;;8.57;;
1603;SDS011;795;49.296;11.348;2022-08-21T01:42:15;8.07;;;7.47;;
1603;SDS011;795;49.296;11.348;2022-08-21T01:44:43;12.23;;;11.13;;
1603;SDS011;795;49.296;11.348;2022-08-21T01:47:11;11.90;;;10.60;;
1603;SDS011;795;49.296;11.348;2022-08-21T01:49:43;11.47;;;10.27;;
1603;SDS011;795;49.296;11.348;2022-08-21T01:52:11;10.83;;;9.93;;
1603;SDS011;795;49.296;11.348;2022-08-21T01:54:38;10.93;;;9.93;;
1603;SDS011;795;49.296;11.348;2022-08-21T01:57:06;10.27;;;9.37;;
1603;SDS011;795;49.296;11.348;2022-08-21T01:59:34;9.30;;;8.50;;
1603;SDS011;795;49.296;11.348;2022-08-21T02:02:03;9.70;;;8.77;;
1603;SDS011;795;49.296;11.348;2022-08-21T02:04:31;9.80;;;9.10;;
1603;SDS011;795;49.296;11.348;2022-08-21T02:07:00;10.53;;;9.43;;
1603;SDS011;795;49.296;11.348;2022-08-21T02:09:27;12.07;;;10.97;;
1603;SDS011;795;49.296;11.348;2022-08-21T02:11:55;26.93;;;11.70;;
1603;SDS011;795;49.296;11.348;2022-08-21T02:14:22;14.80;;;11.83;;
1603;SDS011;795;49.296;11.348;2022-08-21T02:16:58;14.33;;;12.47;;
1603;SDS011;795;49.296;11.348;2022-08-21T02:19:33;14.53;;;12.93;;
1603;SDS011;795;49.296;11.348;2022-08-21T02:22:06;12.63;;;11.50;;
1603;SDS011;795;49.296;11.348;2022-08-21T02:24:37;12.13;;;10.43;;
1603;SDS011;795;49.296;11.348;2022-08-21T02:27:20;15.03;;;11.27;;
1603;SDS011;795;49.296;11.348;2022-08-21T02:29:53;16.80;;;12.10;;
1603;SDS011;795;49.296;11.348;2022-08-21T02:32:23;12.70;;;10.73;;
1603;SDS011;795;49.296;11.348;2022-08-21T02:34:52;21.90;;;10.70;;
1603;SDS011;795;49.296;11.348;2022-08-21T02:37:19;14.20;;;9.97;;
1603;SDS011;795;49.296;11.348;2022-08-21T02:39:46;12.67;;;10.87;;
1603;SDS011;795;49.296;11.348;2022-08-21T02:42:14;13.43;;;11.17;;
1603;SDS011;795;49.296;11.348;2022-08-21T02:44:42;12.00;;;10.70;;
1603;SDS011;795;49.296;11.348;2022-08-21T02:47:09;14.17;;;9.90;;
1603;SDS011;795;49.296;11.348;2022-08-21T02:49:36;10.43;;;9.47;;
1603;SDS011;795;49.296;11.348;2022-08-21T02:52:03;11.57;;;10.37;;
1603;SDS011;795;49.296;11.348;2022-08-21T02:54:31;11.77;;;9.63;;
1603;SDS011;795;49.296;11.348;2022-08-21T02:56:59;14.80;;;9.47;;
1603;SDS011;795;49.296;11.348;2022-08-21T02:59:26;32.83;;;13.03;;
1603;SDS011;795;49.296;11.348;2022-08-21T03:01:52;15.73;;;11.00;;
1603;SDS011;795;49.296;11.348;2022-08-21T03:04:20;33.17;;;12.03;;
1603;SDS011;795;49.296;11.348;2022-08-21T03:06:48;26.00;;;12.20;;
1603;SDS011;795;49.296;11.348;2022-08-21T03:09:14;22.50;;;11.73;;
1603;SDS011;795;49.296;11.348;2022-08-21T03:11:41;147.57;;;17.40;;
1603;SDS011;795;49.296;11.348;2022-08-21T03:14:09;77.90;;;16.00;;
1603;SDS011;795;49.296;11.348;2022-08-21T03:16:36;75.03;;;16.40;;
1603;SDS011;795;49.296;11.348;2022-08-21T03:19:03;49.07;;;15.63;;
1603;SDS011;795;49.296;11.348;2022-08-21T03:21:30;43.77;;;15.20;;
1603;SDS011;795;49.296;11.348;2022-08-21T03:23:57;76.87;;;17.20;;
1603;SDS011;795;49.296;11.348;2022-08-21T03:26:29;54.70;;;17.13;;
1603;SDS011;795;49.296;11.348;2022-08-21T03:28:57;83.03;;;18.33;;
1603;SDS011;795;49.296;11.348;2022-08-21T03:31:24;76.37;;;17.00;;
1603;SDS011;795;49.296;11.348;2022-08-21T03:33:57;116.47;;;20.67;;
1603;SDS011;795;49.296;11.348;2022-08-21T03:36:24;117.73;;;18.93;;
1603;SDS011;795;49.296;11.348;2022-08-21T03:38:52;70.33;;;17.10;;
1603;SDS011;795;49.296;11.348;2022-08-21T03:41:19;73.83;;;18.33;;
1603;SDS011;795;49.296;11.348;2022-08-21T03:43:47;70.73;;;16.07;;
1603;SDS011;795;49.296;11.348;2022-08-21T03:46:14;46.93;;;15.50;;
1603;SDS011;795;49.296;11.348;2022-08-21T03:48:41;62.63;;;15.50;;
1603;SDS011;795;49.296;11.348;2022-08-21T03:51:08;66.67;;;15.57;;
1603;SDS011;795;49.296;11.348;2022-08-21T03:53:36;108.07;;;20.00;;
1603;SDS011;795;49.296;11.348;2022-08-21T03:56:03;99.37;;;17.93;;
1603;SDS011;795;49.296;11.348;2022-08-21T03:58:31;140.97;;;18.97;;
1603;SDS011;795;49.296;11.348;2022-08-21T04:00:59;149.73;;;19.23;;
1603;SDS011;795;49.296;11.348;2022-08-21T04:03:29;65.70;;;15.63;;
1603;SDS011;795;49.296;11.348;2022-08-21T04:05:56;106.37;;;19.60;;
1603;SDS011;795;49.296;11.348;2022-08-21T04:08:23;63.83;;;16.47;;
1603;SDS011;795;49.296;11.348;2022-08-21T04:10:51;41.07;;;14.10;;
1603;SDS011;795;49.296;11.348;2022-08-21T04:13:22;62.47;;;15.90;;
1603;SDS011;795;49.296;11.348;2022-08-21T04:15:50;86.20;;;17.47;;
1603;SDS011;795;49.296;11.348;2022-08-21T04:18:17;136.93;;;21.10;;
1603;SDS011;795;49.296;11.348;2022-08-21T04:20:45;44.00;;;16.03;;
1603;SDS011;795;49.296;11.348;2022-08-21T04:23:17;122.30;;;22.27;;
1603;SDS011;795;49.296;11.348;2022-08-21T04:25:50;77.53;;;18.17;;
1603;SDS011;795;49.296;11.348;2022-08-21T04:28:20;123.87;;;22.90;;
1603;SDS011;795;49.296;11.348;2022-08-21T04:30:54;38.83;;;17.90;;
1603;SDS011;795;49.296;11.348;2022-08-21T04:33:22;56.20;;;19.40;;
1603;SDS011;795;49.296;11.348;2022-08-21T04:35:50;93.57;;;23.17;;
1603;SDS011;795;49.296;11.348;2022-08-21T04:38:17;92.17;;;22.00;;
1603;SDS011;795;49.296;11.348;2022-08-21T04:40:45;114.97;;;25.07;;
1603;SDS011;795;49.296;11.348;2022-08-21T04:43:14;199.67;;;26.03;;
1603;SDS011;795;49.296;11.348;2022-08-21T04:45:43;91.40;;;22.50;;
1603;SDS011;795;49.296;11.348;2022-08-21T04:48:14;124.80;;;24.50;;
1603;SDS011;795;49.296;11.348;2022-08-21T04:50:52;148.23;;;26.20;;
1603;SDS011;795;49.296;11.348;2022-08-21T04:53:37;183.17;;;27.20;;
1603;SDS011;795;49.296;11.348;2022-08-21T04:56:13;152.07;;;25.23;;
1603;SDS011;795;49.296;11.348;2022-08-21T04:59:22;348.40;;;32.33;;
1603;SDS011;795;49.296;11.348;2022-08-21T05:01:59;209.30;;;26.57;;
1603;SDS011;795;49.296;11.348;2022-08-21T05:04:29;235.77;;;30.10;;
1603;SDS011;795;49.296;11.348;2022-08-21T05:07:04;218.43;;;24.47;;
1603;SDS011;795;49.296;11.348;2022-08-21T05:09:38;158.87;;;24.67;;
1603;SDS011;795;49.296;11.348;2022-08-21T05:12:05;195.63;;;24.13;;
1603;SDS011;795;49.296;11.348;2022-08-21T05:14:33;201.40;;;26.40;;
1603;SDS011;795;49.296;11.348;2022-08-21T05:17:01;215.40;;;25.60;;
1603;SDS011;795;49.296;11.348;2022-08-21T05:19:28;220.10;;;25.83;;
1603;SDS011;795;49.296;11.348;2022-08-21T05:21:55;246.97;;;25.57;;
1603;SDS011;795;49.296;11.348;2022-08-21T05:24:23;187.07;;;26.43;;
1603;SDS011;795;49.296;11.348;2022-08-21T05:26:50;171.90;;;25.33;;
1603;SDS011;795;49.296;11.348;2022-08-21T05:29:17;218.00;;;27.63;;
1603;SDS011;795;49.296;11.348;2022-08-21T05:31:45;289.63;;;29.07;;
1603;SDS011;795;49.296;11.348;2022-08-21T05:34:14;102.50;;;19.50;;
1603;SDS011;795;49.296;11.348;2022-08-21T05:36:46;170.93;;;25.47;;
1603;SDS011;795;49.296;11.348;2022-08-21T05:39:13;125.27;;;22.13;;
1603;SDS011;795;49.296;11.348;2022-08-21T05:41:41;131.77;;;21.80;;
1603;SDS011;795;49.296;11.348;2022-08-21T05:44:08;107.70;;;19.57;;
1603;SDS011;795;49.296;11.348;2022-08-21T05:46:36;69.17;;;19.27;;
1603;SDS011;795;49.296;11.348;2022-08-21T05:49:04;66.80;;;18.73;;
1603;SDS011;795;49.296;11.348;2022-08-21T05:51:31;77.07;;;17.10;;
1603;SDS011;795;49.296;11.348;2022-08-21T05:53:58;87.70;;;18.97;;
1603;SDS011;795;49.296;11.348;2022-08-21T05:56:25;200.70;;;24.20;;
1603;SDS011;795;49.296;11.348;2022-08-21T05:58:52;86.50;;;19.73;;
1603;SDS011;795;49.296;11.348;2022-08-21T06:01:19;136.63;;;21.27;;
1603;SDS011;795;49.296;11.348;2022-08-21T06:03:46;86.33;;;17.60;;
1603;SDS011;795;49.296;11.348;2022-08-21T06:06:13;105.63;;;19.57;;
1603;SDS011;795;49.296;11.348;2022-08-21T06:08:40;53.13;;;18.50;;
1603;SDS011;795;49.296;11.348;2022-08-21T06:11:07;78.10;;;20.27;;
1603;SDS011;795;49.296;11.348;2022-08-21T06:13:36;72.43;;;18.90;;
1603;SDS011;795;49.296;11.348;2022-08-21T06:16:08;127.40;;;21.67;;
1603;SDS011;795;49.296;11.348;2022-08-21T06:18:42;77.70;;;20.27;;
1603;SDS011;795;49.296;11.348;2022-08-21T06:21:12;114.67;;;22.43;;
1603;SDS011;795;49.296;11.348;2022-08-21T06:23:40;188.43;;;25.30;;
1603;SDS011;795;49.296;11.348;2022-08-21T06:26:09;123.60;;;21.50;;
1603;SDS011;795;49.296;11.348;2022-08-21T06:28:39;55.47;;;18.80;;
1603;SDS011;795;49.296;11.348;2022-08-21T06:31:16;69.53;;;18.47;;
1603;SDS011;795;49.296;11.348;2022-08-21T06:33:50;84.23;;;18.70;;
1603;SDS011;795;49.296;11.348;2022-08-21T06:36:18;54.07;;;21.20;;
1603;SDS011;795;49.296;11.348;2022-08-21T06:38:46;48.77;;;25.27;;
1603;SDS011;795;49.296;11.348;2022-08-21T06:41:17;136.43;;;24.30;;
1603;SDS011;795;49.296;11.348;2022-08-21T06:43:49;129.50;;;24.20;;
1603;SDS011;795;49.296;11.348;2022-08-21T06:46:16;43.67;;;22.43;;
1603;SDS011;795;49.296;11.348;2022-08-21T06:48:43;56.30;;;21.67;;
1603;SDS011;795;49.296;11.348;2022-08-21T06:51:10;67.17;;;25.67;;
1603;SDS011;795;49.296;11.348;2022-08-21T06:53:37;42.93;;;20.83;;
1603;SDS011;795;49.296;11.348;2022-08-21T06:56:04;63.33;;;22.37;;
1603;SDS011;795;49.296;11.348;2022-08-21T06:58:31;66.03;;;22.10;;
1603;SDS011;795;49.296;11.348;2022-08-21T07:00:58;50.83;;;22.30;;
1603;SDS011;795;49.296;11.348;2022-08-21T07:03:34;39.63;;;21.37;;
1603;SDS011;795;49.296;11.348;2022-08-21T07:06:09;22.73;;;20.00;;
1603;SDS011;795;49.296;11.348;2022-08-21T07:08:38;29.07;;;20.43;;
1603;SDS011;795;49.296;11.348;2022-08-21T07:11:07;26.60;;;20.30;;
1603;SDS011;795;49.296;11.348;2022-08-21T07:13:43;30.10;;;20.43;;
1603;SDS011;795;49.296;11.348;2022-08-21T07:16:10;23.03;;;20.43;;
1603;SDS011;795;49.296;11.348;2022-08-21T07:18:38;29.47;;;18.60;;
1603;SDS011;795;49.296;11.348;2022-08-21T07:21:06;23.53;;;18.83;;
1603;SDS011;795;49.296;11.348;2022-08-21T07:23:37;31.23;;;18.73;;
1603;SDS011;795;49.296;11.348;2022-08-21T07:26:13;19.57;;;17.70;;
1603;SDS011;795;49.296;11.348;2022-08-21T07:28:47;19.93;;;17.57;;
1603;SDS011;795;49.296;11.348;2022-08-21T07:31:17;21.40;;;19.30;;
1603;SDS011;795;49.296;11.348;2022-08-21T07:33:48;20.33;;;18.43;;
1603;SDS011;795;49.296;11.348;2022-08-21T07:36:16;20.93;;;17.10;;
1603;SDS011;795;49.296;11.348;2022-08-21T07:38:43;18.53;;;16.87;;
1603;SDS011;795;49.296;11.348;2022-08-21T07:41:44;19.93;;;18.23;;
1603;SDS011;795;49.296;11.348;2022-08-21T07:44:04;19.00;;;17.30;;
1603;SDS011;795;49.296;11.348;2022-08-21T07:46:31;28.33;;;18.37;;
1603;SDS011;795;49.296;11.348;2022-08-21T07:48:58;19.03;;;17.33;;
1603;SDS011;795;49.296;11.348;2022-08-21T07:51:26;19.70;;;17.90;;
1603;SDS011;795;49.296;11.348;2022-08-21T07:53:56;19.90;;;17.80;;
1603;SDS011;795;49.296;11.348;2022-08-21T07:56:25;20.47;;;18.47;;
1603;SDS011;795;49.296;11.348;2022-08-21T07:58:55;20.77;;;18.87;;
1603;SDS011;795;49.296;11.348;2022-08-21T08:03:48;21.57;;;19.47;;
1603;SDS011;795;49.296;11.348;2022-08-21T08:06:15;20.20;;;18.23;;
1603;SDS011;795;49.296;11.348;2022-08-21T08:08:44;20.77;;;18.90;;
1603;SDS011;795;49.296;11.348;2022-08-21T08:11:13;19.80;;;18.00;;
1603;SDS011;795;49.296;11.348;2022-08-21T08:13:42;25.83;;;19.80;;
1603;SDS011;795;49.296;11.348;2022-08-21T08:16:18;23.00;;;20.60;;
1603;SDS011;795;49.296;11.348;2022-08-21T08:18:45;21.67;;;19.67;;
1603;SDS011;795;49.296;11.348;2022-08-21T08:21:13;21.10;;;19.10;;
1603;SDS011;795;49.296;11.348;2022-08-21T08:23:40;23.10;;;20.97;;
1603;SDS011;795;49.296;11.348;2022-08-21T08:26:07;23.00;;;20.97;;
1603;SDS011;795;49.296;11.348;2022-08-21T08:28:34;22.50;;;20.40;;
1603;SDS011;795;49.296;11.348;2022-08-21T08:31:01;23.77;;;21.77;;
1603;SDS011;795;49.296;11.348;2022-08-21T08:33:29;22.43;;;20.33;;
1603;SDS011;795;49.296;11.348;2022-08-21T08:35:56;23.47;;;21.23;;
1603;SDS011;795;49.296;11.348;2022-08-21T08:38:28;23.00;;;20.90;;
1603;SDS011;795;49.296;11.348;2022-08-21T08:41:14;23.83;;;21.63;;
1603;SDS011;795;49.296;11.348;2022-08-21T08:43:54;20.77;;;18.87;;
1603;SDS011;795;49.296;11.348;2022-08-21T08:46:40;19.13;;;17.53;;
1603;SDS011;795;49.296;11.348;2022-08-21T08:49:15;18.37;;;16.87;;
1603;SDS011;795;49.296;11.348;2022-08-21T08:52:23;16.43;;;15.13;;
1603;SDS011;795;49.296;11.348;2022-08-21T08:57:33;18.50;;;16.90;;
1603;SDS011;795;49.296;11.348;2022-08-21T09:00:05;20.30;;;18.57;;
1603;SDS011;795;49.296;11.348;2022-08-21T09:02:43;18.10;;;16.60;;
1603;SDS011;795;49.296;11.348;2022-08-21T09:05:18;17.77;;;16.27;;
1603;SDS011;795;49.296;11.348;2022-08-21T09:08:12;16.27;;;14.90;;
1603;SDS011;795;49.296;11.348;2022-08-21T09:11:25;18.80;;;17.03;;
1603;SDS011;795;49.296;11.348;2022-08-21T09:21:07;17.03;;;15.73;;
1603;SDS011;795;49.296;11.348;2022-08-21T09:27:19;15.83;;;14.63;;
1603;SDS011;795;49.296;11.348;2022-08-21T09:29:49;14.37;;;13.17;;
1603;SDS011;795;49.296;11.348;2022-08-21T09:32:21;15.47;;;14.17;;
1603;SDS011;795;49.296;11.348;2022-08-21T09:35:10;13.80;;;12.50;;
1603;SDS011;795;49.296;11.348;2022-08-21T09:37:53;13.23;;;12.13;;
1603;SDS011;795;49.296;11.348;2022-08-21T09:40:35;14.30;;;13.20;;
1603;SDS011;795;49.296;11.348;2022-08-21T09:45:47;11.83;;;10.93;;
1603;SDS011;795;49.296;11.348;2022-08-21T09:48:29;14.90;;;13.83;;
1603;SDS011;795;49.296;11.348;2022-08-21T09:51:09;14.23;;;13.13;;
1603;SDS011;795;49.296;11.348;2022-08-21T09:53:47;14.07;;;12.97;;
1603;SDS011;795;49.296;11.348;2022-08-21T09:56:50;13.10;;;12.10;;
1603;SDS011;795;49.296;11.348;2022-08-21T10:00:06;13.13;;;12.23;;
1603;SDS011;795;49.296;11.348;2022-08-21T10:02:52;11.70;;;10.63;;
1603;SDS011;795;49.296;11.348;2022-08-21T10:05:22;11.40;;;10.50;;
1603;SDS011;795;49.296;11.348;2022-08-21T10:07:53;10.63;;;9.87;;
1603;SDS011;795;49.296;11.348;2022-08-21T10:10:21;11.50;;;10.70;;
1603;SDS011;795;49.296;11.348;2022-08-21T10:13:00;11.00;;;10.13;;
1603;SDS011;795;49.296;11.348;2022-08-21T10:16:10;13.13;;;12.00;;
1603;SDS011;795;49.296;11.348;2022-08-21T10:25:37;9.60;;;8.90;;
1603;SDS011;795;49.296;11.348;2022-08-21T10:28:40;9.13;;;8.43;;
1603;SDS011;795;49.296;11.348;2022-08-21T10:38:38;9.23;;;8.53;;
1603;SDS011;795;49.296;11.348;2022-08-21T10:42:03;9.67;;;8.77;;
1603;SDS011;795;49.296;11.348;2022-08-21T10:48:16;8.30;;;7.70;;
1603;SDS011;795;49.296;11.348;2022-08-21T10:51:10;8.37;;;7.77;;
1603;SDS011;795;49.296;11.348;2022-08-21T10:54:20;9.37;;;8.77;;
1603;SDS011;795;49.296;11.348;2022-08-21T10:57:11;9.00;;;8.30;;
1603;SDS011;795;49.296;11.348;2022-08-21T11:00:00;11.23;;;10.33;;
1603;SDS011;795;49.296;11.348;2022-08-21T11:02:46;10.63;;;9.63;;
1603;SDS011;795;49.296;11.348;2022-08-21T11:05:35;8.03;;;7.43;;
1603;SDS011;795;49.296;11.348;2022-08-21T11:08:21;8.47;;;7.87;;
1603;SDS011;795;49.296;11.348;2022-08-21T11:14:47;7.00;;;6.57;;
1603;SDS011;795;49.296;11.348;2022-08-21T11:17:16;6.73;;;6.13;;
1603;SDS011;795;49.296;11.348;2022-08-21T11:20:05;6.57;;;6.07;;
1603;SDS011;795;49.296;11.348;2022-08-21T11:22:50;6.90;;;6.33;;
1603;SDS011;795;49.296;11.348;2022-08-21T11:26:02;7.70;;;7.10;;
1603;SDS011;795;49.296;11.348;2022-08-21T11:28:47;6.37;;;5.87;;
1603;SDS011;795;49.296;11.348;2022-08-21T11:31:40;8.13;;;7.53;;
1603;SDS011;795;49.296;11.348;2022-08-21T11:35:03;7.17;;;6.60;;
1603;SDS011;795;49.296;11.348;2022-08-21T11:37:50;6.50;;;6.00;;
1603;SDS011;795;49.296;11.348;2022-08-21T11:47:51;5.70;;;5.23;;
1603;SDS011;795;49.296;11.348;2022-08-21T11:50:32;7.40;;;6.70;;
1603;SDS011;795;49.296;11.348;2022-08-21T11:53:11;5.77;;;5.37;;
1603;SDS011;795;49.296;11.348;2022-08-21T11:55:56;5.77;;;5.37;;
1603;SDS011;795;49.296;11.348;2022-08-21T11:58:59;6.17;;;5.77;;
1603;SDS011;795;49.296;11.348;2022-08-21T12:01:39;6.27;;;5.77;;
1603;SDS011;795;49.296;11.348;2022-08-21T12:07:14;6.60;;;5.97;;
1603;SDS011;795;49.296;11.348;2022-08-21T12:10:06;6.03;;;5.60;;
1603;SDS011;795;49.296;11.348;2022-08-21T12:12:41;5.07;;;4.67;;
1603;SDS011;795;49.296;11.348;2022-08-21T12:17:54;5.17;;;4.87;;
1603;SDS011;795;49.296;11.348;2022-08-21T12:25:42;6.00;;;5.60;;
1603;SDS011;795;49.296;11.348;2022-08-21T12:28:29;6.73;;;6.07;;
1603;SDS011;795;49.296;11.348;2022-08-21T12:30:58;6.50;;;6.10;;
1603;SDS011;795;49.296;11.348;2022-08-21T12:36:09;5.60;;;5.20;;
1603;SDS011;795;49.296;11.348;2022-08-21T12:38:49;5.77;;;5.37;;
1603;SDS011;795;49.296;11.348;2022-08-21T12:41:28;5.07;;;4.77;;
1603;SDS011;795;49.296;11.348;2022-08-21T12:44:21;5.87;;;5.47;;
1603;SDS011;795;49.296;11.348;2022-08-21T12:47:05;5.13;;;4.73;;
1603;SDS011;795;49.296;11.348;2022-08-21T12:53:09;5.60;;;5.20;;
1603;SDS011;795;49.296;11.348;2022-08-21T12:55:54;4.70;;;4.30;;
1603;SDS011;795;49.296;11.348;2022-08-21T12:58:27;4.70;;;4.30;;
1603;SDS011;795;49.296;11.348;2022-08-21T13:00:56;5.30;;;5.00;;
1603;SDS011;795;49.296;11.348;2022-08-21T13:03:51;4.80;;;4.50;;
1603;SDS011;795;49.296;11.348;2022-08-21T13:06:36;5.13;;;4.63;;
1603;SDS011;795;49.296;11.348;2022-08-21T13:09:12;4.67;;;4.33;;
1603;SDS011;795;49.296;11.348;2022-08-21T13:11:49;4.33;;;4.03;;
1603;SDS011;795;49.296;11.348;2022-08-21T13:14:36;4.80;;;4.50;;
1603;SDS011;795;49.296;11.348;2022-08-21T13:17:13;4.73;;;4.43;;
1603;SDS011;795;49.296;11.348;2022-08-21T13:19:58;5.00;;;4.70;;
1603;SDS011;795;49.296;11.348;2022-08-21T13:22:44;5.30;;;4.80;;
1603;SDS011;795;49.296;11.348;2022-08-21T13:25:15;4.87;;;4.57;;
1603;SDS011;795;49.296;11.348;2022-08-21T13:28:06;5.07;;;4.67;;
1603;SDS011;795;49.296;11.348;2022-08-21T13:30:59;4.50;;;4.20;;
1603;SDS011;795;49.296;11.348;2022-08-21T13:33:27;5.20;;;4.80;;
1603;SDS011;795;49.296;11.348;2022-08-21T13:36:09;5.10;;;4.70;;
1603;SDS011;795;49.296;11.348;2022-08-21T13:38:45;4.97;;;4.67;;
1603;SDS011;795;49.296;11.348;2022-08-21T13:41:18;4.73;;;4.43;;
1603;SDS011;795;49.296;11.348;2022-08-21T13:43:59;5.00;;;4.60;;
1603;SDS011;795;49.296;11.348;2022-08-21T13:46:57;4.40;;;4.10;;
1603;SDS011;795;49.296;11.348;2022-08-21T13:49:34;5.47;;;5.07;;
1603;SDS011;795;49.296;11.348;2022-08-21T13:52:17;4.63;;;4.30;;
1603;SDS011;795;49.296;11.348;2022-08-21T13:54:55;5.60;;;5.20;;
1603;SDS011;795;49.296;11.348;2022-08-21T13:57:36;3.90;;;3.60;;
1603;SDS011;795;49.296;11.348;2022-08-21T14:00:43;4.67;;;4.30;;
1603;SDS011;795;49.296;11.348;2022-08-21T14:03:06;4.70;;;4.40;;
1603;SDS011;795;49.296;11.348;2022-08-21T14:05:44;4.93;;;4.53;;
1603;SDS011;795;49.296;11.348;2022-08-21T14:08:14;4.80;;;4.50;;
1603;SDS011;795;49.296;11.348;2022-08-21T14:11:21;4.20;;;3.93;;
1603;SDS011;795;49.296;11.348;2022-08-21T14:13:50;4.93;;;4.63;;
1603;SDS011;795;49.296;11.348;2022-08-21T14:16:43;4.90;;;4.60;;
1603;SDS011;795;49.296;11.348;2022-08-21T14:19:35;4.33;;;4.03;;
1603;SDS011;795;49.296;11.348;2022-08-21T14:30:29;4.33;;;4.03;;
1603;SDS011;795;49.296;11.348;2022-08-21T14:33:09;4.40;;;4.17;;
1603;SDS011;795;49.296;11.348;2022-08-21T14:35:47;4.90;;;4.50;;
1603;SDS011;795;49.296;11.348;2022-08-21T14:38:19;5.10;;;4.70;;
1603;SDS011;795;49.296;11.348;2022-08-21T14:40:51;5.10;;;4.70;;
1603;SDS011;795;49.296;11.348;2022-08-21T14:43:26;4.87;;;4.57;;
1603;SDS011;795;49.296;11.348;2022-08-21T14:45:54;4.03;;;3.73;;
1603;SDS011;795;49.296;11.348;2022-08-21T14:48:22;4.40;;;4.00;;
1603;SDS011;795;49.296;11.348;2022-08-21T14:50:49;4.17;;;3.87;;
1603;SDS011;795;49.296;11.348;2022-08-21T14:53:17;4.13;;;3.83;;
1603;SDS011;795;49.296;11.348;2022-08-21T14:55:44;4.30;;;3.93;;
1603;SDS011;795;49.296;11.348;2022-08-21T14:58:31;4.20;;;3.90;;
1603;SDS011;795;49.296;11.348;2022-08-21T15:01:11;4.07;;;3.77;;
1603;SDS011;795;49.296;11.348;2022-08-21T15:03:44;4.20;;;3.90;;
1603;SDS011;795;49.296;11.348;2022-08-21T15:06:15;4.10;;;3.80;;
1603;SDS011;795;49.296;11.348;2022-08-21T15:08:47;4.00;;;3.70;;
1603;SDS011;795;49.296;11.348;2022-08-21T15:11:16;4.60;;;4.30;;
1603;SDS011;795;49.296;11.348;2022-08-21T15:14:08;4.30;;;4.10;;
1603;SDS011;795;49.296;11.348;2022-08-21T15:16:49;4.10;;;3.80;;
1603;SDS011;795;49.296;11.348;2022-08-21T15:19:18;4.10;;;3.70;;
1603;SDS011;795;49.296;11.348;2022-08-21T15:21:45;4.33;;;4.07;;
1603;SDS011;795;49.296;11.348;2022-08-21T15:24:13;3.93;;;3.67;;
1603;SDS011;795;49.296;11.348;2022-08-21T15:26:40;8.73;;;4.30;;
1603;SDS011;795;49.296;11.348;2022-08-21T15:29:09;4.80;;;4.40;;
1603;SDS011;795;49.296;11.348;2022-08-21T15:31:37;3.80;;;3.60;;
1603;SDS011;795;49.296;11.348;2022-08-21T15:34:49;4.00;;;3.60;;
1603;SDS011;795;49.296;11.348;2022-08-21T15:37:18;4.60;;;4.20;;
1603;SDS011;795;49.296;11.348;2022-08-21T15:39:48;4.40;;;4.00;;
1603;SDS011;795;49.296;11.348;2022-08-21T15:42:19;5.77;;;5.37;;
1603;SDS011;795;49.296;11.348;2022-08-21T15:44:48;4.33;;;3.97;;
1603;SDS011;795;49.296;11.348;2022-08-21T15:47:20;4.13;;;3.83;;
1603;SDS011;795;49.296;11.348;2022-08-21T15:49:57;4.10;;;3.80;;
1603;SDS011;795;49.296;11.348;2022-08-21T15:52:25;4.07;;;3.67;;
1603;SDS011;795;49.296;11.348;2022-08-21T15:54:52;4.33;;;4.03;;
1603;SDS011;795;49.296;11.348;2022-08-21T15:57:21;3.90;;;3.57;;
1603;SDS011;795;49.296;11.348;2022-08-21T15:59:51;3.10;;;2.90;;
1603;SDS011;795;49.296;11.348;2022-08-21T16:02:38;4.60;;;4.20;;
1603;SDS011;795;49.296;11.348;2022-08-21T16:05:11;7.10;;;3.30;;
1603;SDS011;795;49.296;11.348;2022-08-21T16:07:42;4.47;;;4.17;;
1603;SDS011;795;49.296;11.348;2022-08-21T16:10:12;4.30;;;4.00;;
1603;SDS011;795;49.296;11.348;2022-08-21T16:12:44;3.60;;;3.40;;
1603;SDS011;795;49.296;11.348;2022-08-21T16:15:21;3.63;;;3.37;;
1603;SDS011;795;49.296;11.348;2022-08-21T16:17:48;4.77;;;3.70;;
1603;SDS011;795;49.296;11.348;2022-08-21T16:20:19;3.80;;;3.43;;
1603;SDS011;795;49.296;11.348;2022-08-21T16:22:54;3.60;;;3.30;;
1603;SDS011;795;49.296;11.348;2022-08-21T16:25:24;4.10;;;3.40;;
1603;SDS011;795;49.296;11.348;2022-08-21T16:27:53;3.07;;;2.87;;
1603;SDS011;795;49.296;11.348;2022-08-21T16:30:27;3.60;;;3.40;;
1603;SDS011;795;49.296;11.348;2022-08-21T16:32:55;4.60;;;4.20;;
1603;SDS011;795;49.296;11.348;2022-08-21T16:35:26;3.70;;;3.50;;
1603;SDS011;795;49.296;11.348;2022-08-21T16:37:53;3.03;;;2.70;;
1603;SDS011;795;49.296;11.348;2022-08-21T16:40:20;3.10;;;2.90;;
1603;SDS011;795;49.296;11.348;2022-08-21T16:42:48;3.37;;;3.07;;
1603;SDS011;795;49.296;11.348;2022-08-21T16:45:16;3.77;;;3.50;;
1603;SDS011;795;49.296;11.348;2022-08-21T16:47:46;3.27;;;3.07;;
1603;SDS011;795;49.296;11.348;2022-08-21T16:50:15;3.20;;;3.00;;